createdAt,value
2018-05-10T00:00:44.355Z,16.09
2018-05-10T00:01:44.336Z,16.07
2018-05-10T00:02:44.316Z,16.16
2018-05-10T00:03:44.296Z,16.18
2018-05-10T00:04:44.277Z,16.16
2018-05-10T00:05:44.266Z,16.15
2018-05-10T00:06:44.242Z,16.15
2018-05-10T00:07:44.223Z,16.14
2018-05-10T00:08:44.203Z,16.16
2018-05-10T00:09:44.181Z,16.14
2018-05-10T00:10:44.164Z,16.23
2018-05-10T00:11:44.145Z,16.15
2018-05-10T00:12:44.122Z,16.20
2018-05-10T00:13:44.103Z,16.20
2018-05-10T00:14:44.085Z,16.20
2018-05-10T00:15:44.066Z,16.03
2018-05-10T00:16:44.045Z,16.20
2018-05-10T00:17:44.028Z,16.04
2018-05-10T00:18:44.008Z,16.01
2018-05-10T00:19:45.491Z,16.07
2018-05-10T00:20:43.970Z,16.12
2018-05-10T00:21:43.951Z,16.00
2018-05-10T00:22:43.931Z,16.14
2018-05-10T00:23:43.913Z,16.03
2018-05-10T00:24:43.893Z,16.04
2018-05-10T00:25:44.625Z,16.04
2018-05-10T00:26:43.859Z,16.03
2018-05-10T00:27:43.837Z,16.04
2018-05-10T00:28:43.817Z,16.09
2018-05-10T00:29:43.797Z,16.01
2018-05-10T00:30:43.777Z,16.04
2018-05-10T00:31:43.759Z,16.03
2018-05-10T00:32:43.739Z,16.01
2018-05-10T00:33:43.723Z,15.92
2018-05-10T00:34:43.701Z,15.96
2018-05-10T00:35:43.685Z,15.88
2018-05-10T00:36:43.660Z,15.81
2018-05-10T00:37:43.643Z,15.97
2018-05-10T00:38:43.623Z,15.92
2018-05-10T00:39:43.603Z,15.94
2018-05-10T00:40:43.584Z,15.86
2018-05-10T00:41:44.317Z,15.92
2018-05-10T00:42:43.547Z,15.86
2018-05-10T00:43:43.527Z,15.82
2018-05-10T00:44:43.506Z,15.84
2018-05-10T00:45:43.488Z,15.79
2018-05-10T00:46:43.468Z,15.74
2018-05-10T00:47:43.452Z,15.68
2018-05-10T00:48:43.429Z,15.76
2018-05-10T00:49:43.409Z,15.75
2018-05-10T00:50:43.392Z,15.66
2018-05-10T00:51:43.372Z,15.64
2018-05-10T00:52:43.351Z,15.59
2018-05-10T00:53:43.333Z,15.56
2018-05-10T00:54:43.312Z,15.59
2018-05-10T00:55:43.297Z,15.52
2018-05-10T00:56:43.273Z,15.52
2018-05-10T00:57:43.259Z,15.45
2018-05-10T00:58:43.236Z,15.52
2018-05-10T00:59:43.216Z,15.49
2018-05-10T01:00:43.196Z,15.54
2018-05-10T01:01:43.175Z,15.45
2018-05-10T01:02:43.157Z,15.52
2018-05-10T01:03:43.136Z,15.46
2018-05-10T01:04:43.128Z,15.46
2018-05-10T01:05:43.106Z,15.43
2018-05-10T01:06:43.081Z,15.42
2018-05-10T01:07:43.058Z,15.39
2018-05-10T01:08:43.038Z,15.41
2018-05-10T01:09:43.019Z,15.28
2018-05-10T01:10:42.999Z,15.33
2018-05-10T01:11:42.979Z,15.39
2018-05-10T01:12:42.959Z,15.36
2018-05-10T01:13:42.940Z,15.30
2018-05-10T01:14:42.921Z,15.30
2018-05-10T01:15:42.900Z,15.30
2018-05-10T01:16:42.880Z,15.38
2018-05-10T01:17:42.860Z,15.24
2018-05-10T01:18:42.840Z,15.36
2018-05-10T01:19:42.825Z,15.36
2018-05-10T01:20:42.802Z,15.30
2018-05-10T01:21:42.782Z,15.33
2018-05-10T01:22:42.762Z,15.31
2018-05-10T01:23:42.741Z,15.39
2018-05-10T01:24:42.721Z,15.28
2018-05-10T01:25:42.702Z,15.35
2018-05-10T01:26:42.682Z,15.36
2018-05-10T01:27:42.662Z,15.30
2018-05-10T01:28:42.642Z,15.33
2018-05-10T01:29:42.622Z,15.35
2018-05-10T01:30:42.605Z,15.31
2018-05-10T01:31:42.586Z,15.36
2018-05-10T01:32:42.563Z,15.30
2018-05-10T01:33:42.544Z,15.35
2018-05-10T01:34:42.523Z,15.31
2018-05-10T01:35:42.503Z,15.35
2018-05-10T01:36:42.483Z,15.30
2018-05-10T01:37:42.463Z,15.31
2018-05-10T01:38:42.446Z,15.27
2018-05-10T01:39:42.425Z,15.33
2018-05-10T01:40:42.404Z,15.38
2018-05-10T01:41:42.385Z,15.33
2018-05-10T01:42:42.364Z,15.45
2018-05-10T01:43:42.345Z,15.45
2018-05-10T01:44:42.325Z,15.43
2018-05-10T01:45:42.305Z,15.46
2018-05-10T01:46:42.286Z,15.49
2018-05-10T01:47:42.266Z,15.52
2018-05-10T01:48:42.247Z,15.46
2018-05-10T01:49:42.226Z,15.49
2018-05-10T01:50:42.208Z,15.48
2018-05-10T01:51:42.187Z,15.46
2018-05-10T01:52:42.167Z,15.46
2018-05-10T01:53:42.147Z,15.46
2018-05-10T01:54:42.127Z,15.46
2018-05-10T01:55:42.108Z,15.39
2018-05-10T01:56:42.088Z,15.42
2018-05-10T01:57:42.068Z,15.38
2018-05-10T01:58:42.048Z,15.30
2018-05-10T01:59:42.029Z,15.27
2018-05-10T02:00:42.008Z,15.38
2018-05-10T02:01:41.989Z,15.33
2018-05-10T02:02:41.970Z,15.30
2018-05-10T02:03:41.949Z,15.39
2018-05-10T02:04:41.931Z,15.31
2018-05-10T02:05:41.909Z,15.41
2018-05-10T02:06:41.894Z,15.36
2018-05-10T02:07:41.871Z,15.35
2018-05-10T02:08:41.854Z,15.31
2018-05-10T02:09:41.830Z,15.30
2018-05-10T02:10:41.811Z,15.31
2018-05-10T02:11:41.792Z,15.27
2018-05-10T02:12:41.772Z,15.35
2018-05-10T02:13:41.752Z,15.33
2018-05-10T02:14:41.743Z,15.35
2018-05-10T02:15:41.713Z,15.28
2018-05-10T02:16:41.694Z,15.30
2018-05-10T02:17:41.673Z,15.28
2018-05-10T02:18:41.654Z,15.31
2018-05-10T02:19:41.635Z,15.35
2018-05-10T02:20:41.614Z,15.35
2018-05-10T02:21:41.596Z,15.38
2018-05-10T02:22:41.579Z,15.35
2018-05-10T02:23:41.556Z,15.39
2018-05-10T02:24:41.534Z,15.36
2018-05-10T02:25:41.516Z,15.41
2018-05-10T02:26:41.496Z,15.31
2018-05-10T02:27:41.476Z,15.41
2018-05-10T02:28:41.456Z,15.33
2018-05-10T02:29:41.553Z,15.31
2018-05-10T02:30:42.167Z,15.31
2018-05-10T02:31:41.399Z,15.31
2018-05-10T02:32:41.378Z,15.41
2018-05-10T02:33:41.359Z,15.33
2018-05-10T02:34:41.339Z,15.28
2018-05-10T02:35:41.318Z,15.30
2018-05-10T02:36:41.307Z,15.31
2018-05-10T02:37:41.282Z,15.31
2018-05-10T02:38:41.259Z,15.35
2018-05-10T02:39:41.249Z,15.30
2018-05-10T02:40:41.218Z,15.33
2018-05-10T02:41:41.205Z,15.30
2018-05-10T02:42:41.197Z,15.38
2018-05-10T02:43:41.161Z,15.42
2018-05-10T02:44:41.144Z,15.46
2018-05-10T02:45:41.119Z,15.39
2018-05-10T02:46:41.105Z,15.36
2018-05-10T02:47:41.082Z,15.38
2018-05-10T02:48:41.060Z,15.30
2018-05-10T02:49:41.041Z,15.28
2018-05-10T02:50:41.025Z,15.38
2018-05-10T02:51:41.003Z,15.38
2018-05-10T02:52:40.981Z,15.27
2018-05-10T02:53:40.962Z,15.38
2018-05-10T02:54:40.942Z,15.28
2018-05-10T02:55:40.923Z,15.33
2018-05-10T02:56:40.904Z,15.31
2018-05-10T02:57:40.886Z,15.36
2018-05-10T02:58:40.866Z,15.36
2018-05-10T02:59:40.846Z,15.28
2018-05-10T03:00:40.824Z,15.33
2018-05-10T03:01:40.805Z,15.31
2018-05-10T03:02:40.787Z,15.33
2018-05-10T03:03:40.768Z,15.42
2018-05-10T03:04:40.746Z,15.36
2018-05-10T03:05:40.727Z,15.27
2018-05-10T03:06:40.710Z,15.28
2018-05-10T03:07:40.697Z,15.24
2018-05-10T03:08:40.667Z,15.30
2018-05-10T03:09:40.650Z,15.21
2018-05-10T03:10:40.633Z,15.30
2018-05-10T03:11:40.611Z,15.27
2018-05-10T03:12:40.590Z,15.27
2018-05-10T03:13:40.579Z,15.30
2018-05-10T03:14:40.550Z,15.33
2018-05-10T03:15:40.532Z,15.27
2018-05-10T03:16:40.578Z,15.28
2018-05-10T03:17:40.493Z,15.30
2018-05-10T03:18:40.472Z,15.38
2018-05-10T03:19:40.453Z,15.30
2018-05-10T03:20:40.432Z,15.30
2018-05-10T03:21:40.413Z,15.26
2018-05-10T03:22:40.395Z,15.33
2018-05-10T03:23:41.128Z,15.38
2018-05-10T03:24:40.355Z,15.35
2018-05-10T03:25:40.335Z,15.38
2018-05-10T03:26:40.317Z,15.36
2018-05-10T03:27:40.298Z,15.49
2018-05-10T03:28:40.277Z,15.39
2018-05-10T03:29:40.256Z,15.46
2018-05-10T03:30:40.237Z,15.45
2018-05-10T03:31:40.225Z,15.43
2018-05-10T03:32:40.197Z,15.45
2018-05-10T03:33:40.179Z,15.49
2018-05-10T03:34:40.159Z,15.45
2018-05-10T03:35:40.139Z,15.45
2018-05-10T03:36:40.119Z,15.46
2018-05-10T03:37:40.101Z,15.38
2018-05-10T03:38:40.081Z,15.46
2018-05-10T03:39:40.062Z,15.45
2018-05-10T03:40:40.042Z,15.45
2018-05-10T03:41:40.023Z,15.49
2018-05-10T03:42:40.006Z,15.43
2018-05-10T03:43:39.984Z,15.46
2018-05-10T03:44:39.963Z,15.49
2018-05-10T03:45:39.944Z,15.43
2018-05-10T03:46:39.929Z,15.51
2018-05-10T03:47:39.905Z,15.45
2018-05-10T03:48:39.886Z,15.43
2018-05-10T03:49:39.866Z,15.48
2018-05-10T03:50:39.848Z,15.51
2018-05-10T03:51:39.828Z,15.46
2018-05-10T03:52:39.809Z,15.52
2018-05-10T03:53:39.795Z,15.54
2018-05-10T03:54:39.771Z,15.51
2018-05-10T03:55:39.751Z,15.52
2018-05-10T03:56:39.730Z,15.51
2018-05-10T03:57:39.711Z,15.51
2018-05-10T03:58:39.692Z,15.48
2018-05-10T03:59:39.674Z,15.46
2018-05-10T04:00:39.653Z,15.46
2018-05-10T04:01:39.633Z,15.46
2018-05-10T04:02:39.615Z,15.46
2018-05-10T04:03:39.596Z,15.51
2018-05-10T04:04:39.576Z,15.43
2018-05-10T04:05:39.557Z,15.49
2018-05-10T04:06:39.538Z,15.49
2018-05-10T04:07:39.523Z,15.45
2018-05-10T04:08:39.499Z,15.28
2018-05-10T04:09:39.480Z,15.33
2018-05-10T04:10:39.460Z,15.39
2018-05-10T04:11:39.442Z,15.28
2018-05-10T04:12:39.420Z,15.28
2018-05-10T04:13:39.401Z,15.31
2018-05-10T04:14:39.383Z,15.31
2018-05-10T04:15:39.456Z,15.21
2018-05-10T04:16:39.343Z,15.09
2018-05-10T04:17:39.323Z,15.12
2018-05-10T04:18:39.304Z,15.17
2018-05-10T04:19:39.286Z,15.03
2018-05-10T04:20:39.265Z,15.15
2018-05-10T04:21:39.254Z,15.02
2018-05-10T04:22:39.227Z,15.02
2018-05-10T04:23:39.207Z,15.02
2018-05-10T04:24:39.187Z,15.03
2018-05-10T04:25:39.168Z,15.05
2018-05-10T04:26:39.148Z,15.03
2018-05-10T04:27:39.129Z,15.02
2018-05-10T04:28:39.108Z,15.03
2018-05-10T04:29:39.089Z,15.05
2018-05-10T04:30:39.070Z,14.93
2018-05-10T04:31:39.049Z,14.99
2018-05-10T04:32:39.030Z,14.90
2018-05-10T04:33:39.009Z,14.88
2018-05-10T04:34:38.990Z,14.94
2018-05-10T04:35:39.045Z,14.93
2018-05-10T04:36:38.950Z,14.86
2018-05-10T04:37:38.931Z,14.95
2018-05-10T04:38:38.911Z,14.94
2018-05-10T04:39:38.892Z,14.90
2018-05-10T04:40:38.877Z,15.03
2018-05-10T04:41:38.851Z,15.05
2018-05-10T04:42:38.832Z,14.99
2018-05-10T04:43:38.825Z,14.94
2018-05-10T04:44:38.791Z,14.83
2018-05-10T04:45:38.771Z,14.69
2018-05-10T04:46:38.754Z,14.62
2018-05-10T04:47:38.733Z,14.75
2018-05-10T04:48:38.712Z,14.72
2018-05-10T04:49:38.691Z,14.80
2018-05-10T04:50:38.672Z,14.57
2018-05-10T04:51:38.653Z,14.56
2018-05-10T04:52:38.632Z,14.60
2018-05-10T04:53:38.611Z,14.54
2018-05-10T04:54:38.593Z,14.62
2018-05-10T04:55:38.573Z,14.65
2018-05-10T04:56:38.552Z,14.60
2018-05-10T04:57:38.533Z,14.52
2018-05-10T04:58:38.512Z,14.46
2018-05-10T04:59:39.995Z,14.43
2018-05-10T05:00:38.472Z,14.37
2018-05-10T05:01:38.452Z,14.38
2018-05-10T05:02:38.432Z,14.47
2018-05-10T05:03:38.413Z,14.32
2018-05-10T05:04:38.392Z,14.44
2018-05-10T05:05:38.371Z,14.44
2018-05-10T05:06:38.352Z,14.31
2018-05-10T05:07:38.333Z,14.31
2018-05-10T05:08:38.341Z,14.24
2018-05-10T05:09:38.291Z,14.13
2018-05-10T05:10:38.272Z,14.10
2018-05-10T05:11:38.251Z,13.94
2018-05-10T05:12:38.230Z,13.98
2018-05-10T05:13:38.211Z,13.81
2018-05-10T05:14:38.191Z,13.74
2018-05-10T05:15:38.171Z,13.73
2018-05-10T05:16:38.150Z,13.80
2018-05-10T05:17:38.131Z,13.89
2018-05-10T05:18:38.110Z,13.81
2018-05-10T05:19:38.090Z,13.84
2018-05-10T05:20:38.068Z,13.88
2018-05-10T05:21:38.138Z,13.95
2018-05-10T05:22:38.029Z,13.89
2018-05-10T05:23:38.009Z,13.91
2018-05-10T05:24:37.987Z,13.92
2018-05-10T05:25:37.967Z,13.76
2018-05-10T05:26:37.947Z,13.71
2018-05-10T05:27:37.928Z,13.80
2018-05-10T05:28:37.906Z,13.91
2018-05-10T05:29:37.886Z,13.95
2018-05-10T05:30:37.868Z,13.95
2018-05-10T05:31:37.846Z,13.87
2018-05-10T05:32:37.843Z,13.94
2018-05-10T05:33:37.808Z,14.01
2018-05-10T05:34:37.785Z,13.98
2018-05-10T05:35:37.766Z,13.83
2018-05-10T05:36:37.854Z,13.81
2018-05-10T05:37:37.724Z,13.83
2018-05-10T05:38:37.705Z,13.58
2018-05-10T05:39:37.686Z,13.70
2018-05-10T05:40:37.662Z,13.58
2018-05-10T05:41:37.643Z,13.51
2018-05-10T05:42:37.623Z,13.47
2018-05-10T05:43:37.646Z,13.38
2018-05-10T05:44:37.581Z,13.44
2018-05-10T05:45:37.560Z,13.40
2018-05-10T05:46:37.540Z,13.38
2018-05-10T05:47:37.521Z,13.54
2018-05-10T05:48:37.499Z,13.44
2018-05-10T05:49:37.479Z,13.32
2018-05-10T05:50:37.462Z,13.44
2018-05-10T05:51:37.439Z,13.46
2018-05-10T05:52:37.416Z,13.58
2018-05-10T05:53:37.397Z,13.49
2018-05-10T05:54:37.378Z,13.55
2018-05-10T05:55:37.369Z,13.55
2018-05-10T05:56:37.335Z,13.54
2018-05-10T05:57:37.316Z,13.70
2018-05-10T05:58:37.295Z,13.55
2018-05-10T05:59:37.275Z,13.61
2018-05-10T06:00:37.254Z,13.54
2018-05-10T06:01:37.235Z,13.62
2018-05-10T06:02:37.216Z,13.69
2018-05-10T06:03:37.195Z,13.58
2018-05-10T06:04:37.174Z,13.74
2018-05-10T06:05:37.152Z,13.69
2018-05-10T06:06:37.133Z,13.61
2018-05-10T06:07:37.113Z,13.67
2018-05-10T06:08:37.178Z,13.59
2018-05-10T06:09:37.071Z,13.56
2018-05-10T06:10:37.051Z,13.63
2018-05-10T06:11:37.030Z,13.55
2018-05-10T06:12:37.009Z,13.62
2018-05-10T06:13:36.989Z,13.58
2018-05-10T06:14:36.969Z,13.58
2018-05-10T06:15:37.090Z,13.61
2018-05-10T06:16:36.929Z,13.67
2018-05-10T06:17:36.909Z,13.61
2018-05-10T06:18:36.891Z,13.70
2018-05-10T06:19:36.869Z,13.58
2018-05-10T06:20:36.847Z,13.49
2018-05-10T06:21:36.892Z,13.49
2018-05-10T06:22:36.809Z,13.61
2018-05-10T06:23:36.787Z,13.56
2018-05-10T06:24:36.767Z,13.65
2018-05-10T06:25:36.748Z,13.63
2018-05-10T06:26:36.727Z,13.76
2018-05-10T06:27:36.707Z,13.67
2018-05-10T06:28:36.689Z,13.79
2018-05-10T06:29:36.665Z,13.73
2018-05-10T06:30:37.397Z,13.73
2018-05-10T06:31:36.626Z,13.79
2018-05-10T06:32:36.604Z,13.73
2018-05-10T06:33:36.585Z,13.71
2018-05-10T06:34:36.566Z,13.73
2018-05-10T06:35:36.546Z,13.76
2018-05-10T06:36:36.524Z,13.71
2018-05-10T06:37:36.506Z,13.70
2018-05-10T06:38:36.484Z,13.52
2018-05-10T06:39:36.464Z,13.49
2018-05-10T06:40:36.444Z,13.56
2018-05-10T06:41:36.439Z,13.54
2018-05-10T06:42:36.404Z,13.67
2018-05-10T06:43:36.386Z,13.65
2018-05-10T06:44:36.364Z,13.58
2018-05-10T06:45:36.343Z,13.46
2018-05-10T06:46:36.324Z,13.62
2018-05-10T06:47:36.305Z,13.71
2018-05-10T06:48:36.284Z,13.84
2018-05-10T06:49:36.263Z,13.84
2018-05-10T06:50:36.244Z,13.80
2018-05-10T06:51:36.225Z,13.95
2018-05-10T06:52:36.203Z,13.79
2018-05-10T06:53:36.183Z,13.71
2018-05-10T06:54:36.183Z,13.80
2018-05-10T06:55:36.144Z,13.71
2018-05-10T06:56:36.124Z,13.76
2018-05-10T06:57:36.105Z,13.59
2018-05-10T06:58:36.083Z,13.61
2018-05-10T06:59:36.066Z,13.61
2018-05-10T07:00:36.044Z,13.59
2018-05-10T07:01:36.024Z,13.74
2018-05-10T07:02:36.006Z,13.62
2018-05-10T07:03:35.984Z,13.74
2018-05-10T07:04:35.969Z,13.56
2018-05-10T07:05:35.947Z,13.55
2018-05-10T07:06:35.969Z,13.73
2018-05-10T07:07:36.656Z,13.55
2018-05-10T07:08:35.884Z,13.62
2018-05-10T07:09:35.949Z,13.55
2018-05-10T07:10:35.845Z,13.58
2018-05-10T07:11:35.825Z,13.52
2018-05-10T07:12:35.810Z,13.58
2018-05-10T07:13:35.785Z,13.58
2018-05-10T07:14:35.766Z,13.46
2018-05-10T07:15:35.745Z,13.47
2018-05-10T07:16:35.724Z,13.47
2018-05-10T07:17:35.707Z,13.56
2018-05-10T07:18:37.187Z,13.58
2018-05-10T07:19:35.665Z,13.73
2018-05-10T07:20:35.644Z,13.77
2018-05-10T07:21:35.625Z,13.84
2018-05-10T07:22:35.604Z,13.84
2018-05-10T07:23:35.588Z,13.81
2018-05-10T07:24:36.315Z,13.69
2018-05-10T07:25:35.544Z,13.74
2018-05-10T07:26:35.523Z,13.74
2018-05-10T07:27:35.503Z,13.71
2018-05-10T07:28:35.483Z,13.69
2018-05-10T07:29:35.463Z,13.83
2018-05-10T07:30:35.444Z,13.84
2018-05-10T07:31:35.423Z,13.81
2018-05-10T07:32:35.402Z,13.81
2018-05-10T07:33:35.383Z,13.84
2018-05-10T07:34:35.367Z,13.87
2018-05-10T07:35:36.846Z,13.88
2018-05-10T07:36:35.324Z,13.84
2018-05-10T07:37:35.303Z,13.84
2018-05-10T07:38:35.282Z,13.88
2018-05-10T07:39:35.263Z,13.95
2018-05-10T07:40:35.245Z,13.94
2018-05-10T07:41:35.224Z,13.95
2018-05-10T07:42:35.203Z,13.83
2018-05-10T07:43:35.183Z,13.89
2018-05-10T07:44:35.165Z,13.84
2018-05-10T07:45:35.143Z,13.62
2018-05-10T07:46:35.124Z,13.47
2018-05-10T07:47:35.104Z,13.41
2018-05-10T07:48:35.088Z,13.37
2018-05-10T07:49:35.064Z,13.47
2018-05-10T07:50:35.043Z,13.51
2018-05-10T07:51:35.027Z,13.47
2018-05-10T07:52:35.754Z,13.51
2018-05-10T07:53:34.986Z,13.61
2018-05-10T07:54:34.962Z,13.59
2018-05-10T07:55:34.993Z,13.58
2018-05-10T07:56:34.923Z,13.46
2018-05-10T07:57:34.905Z,13.49
2018-05-10T07:58:34.882Z,13.43
2018-05-10T07:59:34.863Z,13.56
2018-05-10T08:00:34.842Z,13.46
2018-05-10T08:01:34.821Z,13.62
2018-05-10T08:02:34.802Z,13.69
2018-05-10T08:03:34.783Z,13.79
2018-05-10T08:04:34.760Z,13.94
2018-05-10T08:05:34.742Z,13.94
2018-05-10T08:06:34.721Z,13.94
2018-05-10T08:07:34.702Z,14.07
2018-05-10T08:08:34.681Z,14.02
2018-05-10T08:09:34.661Z,13.74
2018-05-10T08:10:34.641Z,13.71
2018-05-10T08:11:34.624Z,13.94
2018-05-10T08:12:34.601Z,13.96
2018-05-10T08:13:35.334Z,14.01
2018-05-10T08:14:34.562Z,13.96
2018-05-10T08:15:34.542Z,14.20
2018-05-10T08:16:34.528Z,14.09
2018-05-10T08:17:34.502Z,14.10
2018-05-10T08:18:34.482Z,14.02
2018-05-10T08:19:34.460Z,14.17
2018-05-10T08:20:34.439Z,14.12
2018-05-10T08:21:34.421Z,14.09
2018-05-10T08:22:34.401Z,14.07
2018-05-10T08:23:34.381Z,14.12
2018-05-10T08:24:35.864Z,14.19
2018-05-10T08:25:34.342Z,14.27
2018-05-10T08:26:34.321Z,14.25
2018-05-10T08:27:34.303Z,14.19
2018-05-10T08:28:34.281Z,14.24
2018-05-10T08:29:34.263Z,14.14
2018-05-10T08:30:34.243Z,14.21
2018-05-10T08:31:34.222Z,14.21
2018-05-10T08:32:34.202Z,14.24
2018-05-10T08:33:34.183Z,14.34
2018-05-10T08:34:34.164Z,14.28
2018-05-10T08:35:34.145Z,14.27
2018-05-10T08:36:34.221Z,14.20
2018-05-10T08:37:34.109Z,14.19
2018-05-10T08:38:34.084Z,14.17
2018-05-10T08:39:34.066Z,14.21
2018-05-10T08:40:34.046Z,14.19
2018-05-10T08:41:34.024Z,14.24
2018-05-10T08:42:34.006Z,14.29
2018-05-10T08:43:33.987Z,14.27
2018-05-10T08:44:33.966Z,14.31
2018-05-10T08:45:33.945Z,14.28
2018-05-10T08:46:33.927Z,14.44
2018-05-10T08:47:33.907Z,14.49
2018-05-10T08:48:33.888Z,14.53
2018-05-10T08:49:33.868Z,14.54
2018-05-10T08:50:33.849Z,14.32
2018-05-10T08:51:33.842Z,14.28
2018-05-10T08:52:33.809Z,14.31
2018-05-10T08:53:33.789Z,14.31
2018-05-10T08:54:33.774Z,14.34
2018-05-10T08:55:33.751Z,14.47
2018-05-10T08:56:33.730Z,14.39
2018-05-10T08:57:33.711Z,14.34
2018-05-10T08:58:33.693Z,14.43
2018-05-10T08:59:33.673Z,14.31
2018-05-10T09:00:33.652Z,14.43
2018-05-10T09:01:33.635Z,14.38
2018-05-10T09:02:33.615Z,14.50
2018-05-10T09:03:33.594Z,14.32
2018-05-10T09:04:33.575Z,14.34
2018-05-10T09:05:33.556Z,14.39
2018-05-10T09:06:33.537Z,14.29
2018-05-10T09:07:33.519Z,14.49
2018-05-10T09:08:33.500Z,14.35
2018-05-10T09:09:33.478Z,14.46
2018-05-10T09:10:33.458Z,14.53
2018-05-10T09:11:33.440Z,14.50
2018-05-10T09:12:33.420Z,14.49
2018-05-10T09:13:33.400Z,14.62
2018-05-10T09:14:33.419Z,14.54
2018-05-10T09:15:33.362Z,14.52
2018-05-10T09:16:33.341Z,14.56
2018-05-10T09:17:33.327Z,14.62
2018-05-10T09:18:33.304Z,14.56
2018-05-10T09:19:33.285Z,14.52
2018-05-10T09:20:33.264Z,14.53
2018-05-10T09:21:33.248Z,14.52
2018-05-10T09:22:33.227Z,14.56
2018-05-10T09:23:33.209Z,14.60
2018-05-10T09:24:33.188Z,14.64
2018-05-10T09:25:33.169Z,14.57
2018-05-10T09:26:33.151Z,14.69
2018-05-10T09:27:33.132Z,14.78
2018-05-10T09:28:33.110Z,14.64
2018-05-10T09:29:33.093Z,14.60
2018-05-10T09:30:33.073Z,14.62
2018-05-10T09:31:33.067Z,14.56
2018-05-10T09:32:33.034Z,14.68
2018-05-10T09:33:33.016Z,14.78
2018-05-10T09:34:32.996Z,14.62
2018-05-10T09:35:32.978Z,14.74
2018-05-10T09:36:32.957Z,14.71
2018-05-10T09:37:32.939Z,14.68
2018-05-10T09:38:32.920Z,14.64
2018-05-10T09:39:32.968Z,14.67
2018-05-10T09:40:32.881Z,14.46
2018-05-10T09:41:32.863Z,14.49
2018-05-10T09:42:32.844Z,14.42
2018-05-10T09:43:32.824Z,14.37
2018-05-10T09:44:32.803Z,14.31
2018-05-10T09:45:32.785Z,14.29
2018-05-10T09:46:32.766Z,14.21
2018-05-10T09:47:32.746Z,14.19
2018-05-10T09:48:32.726Z,14.17
2018-05-10T09:49:32.709Z,14.14
2018-05-10T09:50:32.690Z,14.21
2018-05-10T09:51:32.670Z,14.20
2018-05-10T09:52:32.651Z,14.19
2018-05-10T09:53:32.631Z,14.24
2018-05-10T09:54:32.611Z,14.16
2018-05-10T09:55:32.592Z,14.14
2018-05-10T09:56:32.617Z,14.27
2018-05-10T09:57:32.552Z,14.35
2018-05-10T09:58:32.533Z,14.29
2018-05-10T09:59:32.514Z,14.42
2018-05-10T10:00:32.494Z,14.57
2018-05-10T10:01:32.474Z,14.60
2018-05-10T10:02:32.457Z,14.61
2018-05-10T10:03:32.441Z,14.49
2018-05-10T10:04:32.417Z,14.57
2018-05-10T10:05:32.397Z,14.65
2018-05-10T10:06:32.378Z,14.57
2018-05-10T10:07:32.360Z,14.75
2018-05-10T10:08:32.341Z,14.93
2018-05-10T10:09:32.320Z,14.88
2018-05-10T10:10:32.303Z,14.91
2018-05-10T10:11:32.336Z,15.02
2018-05-10T10:12:32.262Z,15.01
2018-05-10T10:13:32.243Z,14.93
2018-05-10T10:14:32.224Z,15.02
2018-05-10T10:15:32.205Z,15.03
2018-05-10T10:16:32.185Z,15.01
2018-05-10T10:17:32.237Z,15.02
2018-05-10T10:18:32.149Z,14.87
2018-05-10T10:19:32.130Z,14.80
2018-05-10T10:20:32.111Z,14.74
2018-05-10T10:21:32.091Z,14.83
2018-05-10T10:22:32.073Z,14.87
2018-05-10T10:23:32.054Z,14.93
2018-05-10T10:24:32.033Z,15.01
2018-05-10T10:25:32.016Z,14.84
2018-05-10T10:26:31.999Z,14.98
2018-05-10T10:27:32.732Z,15.03
2018-05-10T10:28:31.958Z,15.01
2018-05-10T10:29:31.939Z,15.11
2018-05-10T10:30:31.922Z,15.06
2018-05-10T10:31:31.902Z,14.88
2018-05-10T10:32:31.882Z,14.91
2018-05-10T10:33:31.863Z,15.01
2018-05-10T10:34:31.881Z,15.01
2018-05-10T10:35:31.826Z,14.86
2018-05-10T10:36:31.807Z,14.94
2018-05-10T10:37:31.789Z,14.90
2018-05-10T10:38:31.769Z,15.05
2018-05-10T10:39:31.751Z,15.01
2018-05-10T10:40:31.731Z,15.03
2018-05-10T10:41:31.712Z,15.05
2018-05-10T10:42:31.693Z,14.94
2018-05-10T10:43:31.676Z,14.91
2018-05-10T10:44:31.656Z,15.02
2018-05-10T10:45:31.707Z,15.09
2018-05-10T10:46:31.620Z,15.01
2018-05-10T10:47:31.600Z,15.05
2018-05-10T10:48:31.581Z,15.03
2018-05-10T10:49:31.566Z,14.99
2018-05-10T10:50:31.543Z,14.99
2018-05-10T10:51:31.525Z,15.11
2018-05-10T10:52:31.505Z,15.03
2018-05-10T10:53:31.486Z,15.09
2018-05-10T10:54:31.468Z,15.06
2018-05-10T10:55:31.449Z,15.05
2018-05-10T10:56:31.431Z,14.90
2018-05-10T10:57:31.416Z,14.90
2018-05-10T10:58:31.392Z,14.91
2018-05-10T10:59:31.373Z,14.88
2018-05-10T11:00:31.353Z,14.83
2018-05-10T11:01:31.334Z,14.84
2018-05-10T11:02:31.316Z,14.88
2018-05-10T11:03:31.297Z,14.83
2018-05-10T11:04:31.278Z,14.84
2018-05-10T11:05:31.259Z,14.69
2018-05-10T11:06:31.239Z,14.71
2018-05-10T11:07:31.222Z,14.71
2018-05-10T11:08:31.203Z,14.68
2018-05-10T11:09:31.182Z,14.61
2018-05-10T11:10:31.164Z,14.65
2018-05-10T11:11:31.145Z,14.72
2018-05-10T11:12:31.126Z,14.72
2018-05-10T11:13:31.106Z,14.78
2018-05-10T11:14:31.088Z,14.87
2018-05-10T11:15:31.069Z,14.71
2018-05-10T11:16:31.048Z,14.83
2018-05-10T11:17:31.030Z,14.88
2018-05-10T11:18:31.011Z,14.80
2018-05-10T11:19:30.994Z,14.88
2018-05-10T11:20:30.977Z,14.98
2018-05-10T11:21:30.957Z,15.01
2018-05-10T11:22:31.020Z,15.03
2018-05-10T11:23:30.920Z,15.06
2018-05-10T11:24:30.896Z,15.06
2018-05-10T11:25:30.878Z,15.02
2018-05-10T11:26:31.609Z,15.03
2018-05-10T11:27:30.840Z,15.11
2018-05-10T11:28:30.821Z,15.24
2018-05-10T11:29:30.803Z,15.13
2018-05-10T11:30:30.782Z,15.23
2018-05-10T11:31:30.765Z,14.99
2018-05-10T11:32:30.744Z,15.02
2018-05-10T11:33:30.725Z,15.08
2018-05-10T11:34:30.707Z,15.09
2018-05-10T11:35:30.689Z,15.05
2018-05-10T11:36:30.668Z,15.01
2018-05-10T11:37:33.654Z,15.15
2018-05-10T11:38:30.632Z,15.09
2018-05-10T11:39:30.614Z,15.03
2018-05-10T11:40:30.595Z,15.01
2018-05-10T11:41:30.575Z,15.08
2018-05-10T11:42:30.556Z,15.08
2018-05-10T11:43:30.538Z,15.11
2018-05-10T11:44:30.579Z,15.11
2018-05-10T11:45:30.500Z,15.15
2018-05-10T11:46:30.483Z,15.21
2018-05-10T11:47:30.465Z,15.15
2018-05-10T11:48:30.444Z,15.05
2018-05-10T11:49:30.425Z,15.11
2018-05-10T11:50:30.407Z,15.19
2018-05-10T11:51:30.392Z,15.23
2018-05-10T11:52:30.370Z,15.11
2018-05-10T11:53:30.351Z,15.20
2018-05-10T11:54:30.333Z,15.28
2018-05-10T11:55:30.314Z,15.31
2018-05-10T11:56:30.295Z,15.31
2018-05-10T11:57:30.275Z,15.31
2018-05-10T11:58:30.257Z,15.33
2018-05-10T11:59:30.238Z,15.49
2018-05-10T12:00:30.219Z,15.52
2018-05-10T12:01:30.200Z,15.52
2018-05-10T12:02:30.206Z,15.61
2018-05-10T12:03:30.163Z,15.57
2018-05-10T12:04:30.144Z,15.61
2018-05-10T12:05:30.125Z,15.60
2018-05-10T12:06:30.108Z,15.72
2018-05-10T12:07:30.089Z,15.70
2018-05-10T12:08:30.071Z,15.74
2018-05-10T12:09:30.053Z,15.70
2018-05-10T12:10:31.535Z,15.75
2018-05-10T12:11:30.017Z,15.78
2018-05-10T12:12:30.001Z,15.78
2018-05-10T12:13:29.979Z,16.00
2018-05-10T12:14:29.961Z,16.14
2018-05-10T12:15:29.944Z,16.16
2018-05-10T12:16:30.675Z,16.16
2018-05-10T12:17:29.908Z,16.16
2018-05-10T12:18:29.889Z,16.23
2018-05-10T12:19:29.870Z,16.27
2018-05-10T12:20:29.866Z,16.22
2018-05-10T12:21:29.834Z,16.25
2018-05-10T12:22:29.817Z,16.15
2018-05-10T12:23:29.800Z,16.07
2018-05-10T12:24:29.782Z,15.94
2018-05-10T12:25:29.778Z,15.86
2018-05-10T12:26:29.745Z,15.94
2018-05-10T12:27:29.729Z,15.84
2018-05-10T12:28:29.709Z,15.94
2018-05-10T12:29:29.692Z,15.96
2018-05-10T12:30:29.745Z,15.82
2018-05-10T12:31:29.657Z,15.82
2018-05-10T12:32:29.636Z,15.86
2018-05-10T12:33:29.620Z,15.93
2018-05-10T12:34:29.602Z,15.82
2018-05-10T12:35:29.585Z,15.67
2018-05-10T12:36:29.566Z,15.60
2018-05-10T12:37:29.546Z,15.54
2018-05-10T12:38:33.282Z,15.41
2018-05-10T12:39:29.514Z,15.36
2018-05-10T12:40:29.492Z,15.41
2018-05-10T12:41:29.559Z,15.30
2018-05-10T12:42:29.456Z,15.38
2018-05-10T12:43:29.439Z,15.39
2018-05-10T12:44:30.170Z,15.43
2018-05-10T12:45:29.401Z,15.35
2018-05-10T12:46:29.383Z,15.42
2018-05-10T12:47:29.364Z,15.39
2018-05-10T12:48:29.344Z,15.38
2018-05-10T12:49:29.327Z,15.30
2018-05-10T12:50:29.308Z,15.30
2018-05-10T12:51:29.290Z,15.35
2018-05-10T12:52:29.270Z,15.33